CheckWX is a tool to help pilots better visualize weather data.  It is not intended as a substitute for an official pre-flight weather briefing.

19:46:43 UTC

KHZL METAR
Hazleton Regional Airport
Hazleton, Pennsylvania, USA
Current

32 mins ago

KHZL 291915Z AUTO 34006KT 10SM CLR 01/M09 A3007 RMK AO2
Observed
Jan-29 @ 19:15 UTC
Wind
  • 340° at 6 KTS
Visibility
10 SM
Flight Rules
VFR
Cloud Levels
  • Clear skies
Temperature
C / 34°F
Dewpoint
-9°C / 16°F
Humidity
48%
Altimeter
30.07" Hg
Pressure
1018.32 hPa
Previous

49 mins ago

KHZL 291858Z AUTO 33008KT 300V360 10SM CLR 01/M10 A3007 RMK AO2
Observed
Jan-29 @ 18:58 UTC
Wind
  • 330° at 8 KTS
Visibility
10 SM
Flight Rules
VFR
Cloud Levels
  • Clear skies
Temperature
C / 34°F
Dewpoint
-10°C / 14°F
Humidity
44%
Altimeter
30.07" Hg
Pressure
1018.32 hPa
Previous

1 hour ago

KHZL 291835Z AUTO 33008KT 10SM CLR 01/M10 A3007 RMK AO2
Observed
Jan-29 @ 18:35 UTC
Wind
  • 330° at 8 KTS
Visibility
10 SM
Flight Rules
VFR
Cloud Levels
  • Clear skies
Temperature
C / 34°F
Dewpoint
-10°C / 14°F
Humidity
44%
Altimeter
30.07" Hg
Pressure
1018.32 hPa